createdAt,value
2022-11-01T00:00:18.382Z,68.11
2022-11-01T00:02:20.598Z,68.08
2022-11-01T00:04:22.753Z,67.98
2022-11-01T00:06:24.926Z,67.79
2022-11-01T00:08:27.190Z,67.96
2022-11-01T00:10:29.700Z,67.84
2022-11-01T00:12:32.177Z,67.88
2022-11-01T00:14:34.305Z,67.68
2022-11-01T00:16:36.571Z,67.24
2022-11-01T00:18:38.638Z,67.35
2022-11-01T00:20:40.617Z,67.06
2022-11-01T00:22:42.582Z,66.91
2022-11-01T00:24:44.581Z,66.87
2022-11-01T00:26:46.633Z,67.35
2022-11-01T00:28:49.685Z,67.22
2022-11-01T00:30:56.359Z,67.18
2022-11-01T00:32:58.526Z,67.07
2022-11-01T00:35:00.467Z,67.19
2022-11-01T00:37:02.565Z,67.31
2022-11-01T00:39:05.548Z,67.46
2022-11-01T00:41:07.917Z,67.34
2022-11-01T00:43:11.592Z,67.43
2022-11-01T00:45:13.490Z,67.25
2022-11-01T00:47:15.552Z,67.16
2022-11-01T00:49:17.567Z,66.92
2022-11-01T00:51:20.188Z,67.04
2022-11-01T00:53:22.655Z,67.11
2022-11-01T00:55:24.523Z,66.85
2022-11-01T00:57:26.671Z,66.80
2022-11-01T00:59:28.759Z,66.80
2022-11-01T01:01:32.596Z,67.10
2022-11-01T01:03:34.955Z,67.36
2022-11-01T01:05:37.570Z,67.41
2022-11-01T01:07:39.801Z,67.23
2022-11-01T01:09:42.034Z,67.49
2022-11-01T01:11:44.021Z,67.14
2022-11-01T01:13:45.933Z,67.28
2022-11-01T01:15:48.175Z,66.94
2022-11-01T01:17:50.789Z,66.70
2022-11-01T01:19:52.871Z,66.57
2022-11-01T01:21:54.761Z,67.30
2022-11-01T01:23:56.777Z,67.50
2022-11-01T01:25:58.760Z,67.30
2022-11-01T01:28:01.235Z,66.96
2022-11-01T01:30:10.376Z,67.07
2022-11-01T01:32:18.799Z,66.85
2022-11-01T01:34:24.073Z,67.35
2022-11-01T01:36:26.128Z,67.70
2022-11-01T01:38:28.218Z,67.82
2022-11-01T01:40:30.622Z,67.70
2022-11-01T01:42:44.084Z,67.66
2022-11-01T01:44:52.124Z,67.37
2022-11-01T01:46:54.275Z,67.65
2022-11-01T01:48:59.820Z,67.38
2022-11-01T01:51:05.978Z,67.57
2022-11-01T01:53:34.339Z,67.71
2022-11-01T01:55:49.115Z,67.72
2022-11-01T01:57:53.102Z,67.90
2022-11-01T01:59:55.079Z,68.09
2022-11-01T02:01:59.302Z,68.10
2022-11-01T02:04:03.880Z,67.95
2022-11-01T02:06:21.227Z,68.02
2022-11-01T02:08:29.567Z,67.93
2022-11-01T02:10:35.990Z,68.42
2022-11-01T02:12:37.921Z,67.95
2022-11-01T02:14:42.494Z,68.04
2022-11-01T02:17:02.535Z,68.09
2022-11-01T02:19:38.324Z,68.24
2022-11-01T02:21:46.164Z,68.16
2022-11-01T02:24:31.491Z,67.86
2022-11-01T02:27:03.285Z,67.43
2022-11-01T02:29:14.755Z,67.31
2022-11-01T02:31:42.133Z,67.73
2022-11-01T02:34:13.285Z,67.79
2022-11-01T02:36:31.660Z,67.50
2022-11-01T02:38:44.387Z,68.10
2022-11-01T02:41:08.576Z,67.92
2022-11-01T02:43:21.620Z,67.73
2022-11-01T02:45:31.771Z,67.73
2022-11-01T02:47:34.677Z,68.12
2022-11-01T02:49:48.349Z,68.13
2022-11-01T02:51:51.572Z,68.04
2022-11-01T02:53:53.573Z,68.15
2022-11-01T02:55:55.533Z,67.89
2022-11-01T02:58:20.277Z,67.93
2022-11-01T03:00:29.097Z,68.22
2022-11-01T03:02:44.788Z,68.05
2022-11-01T03:04:48.249Z,67.73
2022-11-01T03:06:56.074Z,67.78
2022-11-01T03:09:02.636Z,67.99
2022-11-01T03:11:15.953Z,68.17
2022-11-01T03:13:29.363Z,67.87
2022-11-01T03:15:42.905Z,67.83
2022-11-01T03:17:53.363Z,67.73
2022-11-01T03:20:07.046Z,67.42
2022-11-01T03:22:21.532Z,67.29
2022-11-01T03:24:36.311Z,67.33
2022-11-01T03:26:39.879Z,67.39
2022-11-01T03:28:46.495Z,67.62
2022-11-01T03:30:57.348Z,67.23
2022-11-01T03:32:59.561Z,67.26
2022-11-01T03:35:04.591Z,67.33
2022-11-01T03:37:11.783Z,67.25
2022-11-01T03:39:25.249Z,67.27
2022-11-01T03:41:30.306Z,67.40
2022-11-01T03:43:35.648Z,67.20
2022-11-01T03:45:40.523Z,67.22
2022-11-01T03:47:43.319Z,67.29
2022-11-01T03:49:45.585Z,67.30
2022-11-01T03:52:37.476Z,66.91
2022-11-01T03:54:39.588Z,67.05
2022-11-01T03:56:42.071Z,66.72
2022-11-01T03:58:45.279Z,66.86
2022-11-01T04:00:47.349Z,67.05
2022-11-01T04:02:51.072Z,67.13
2022-11-01T04:04:52.961Z,67.05
2022-11-01T04:06:54.942Z,66.91
2022-11-01T04:08:57.419Z,67.19
2022-11-01T04:10:59.887Z,66.60
2022-11-01T04:13:02.414Z,66.60
2022-11-01T04:15:23.925Z,66.57
2022-11-01T04:17:44.472Z,66.75
2022-11-01T04:20:04.976Z,67.12
2022-11-01T04:22:07.131Z,66.78
2022-11-01T04:24:09.651Z,66.83
2022-11-01T04:26:18.108Z,66.96
2022-11-01T04:28:20.535Z,67.22
2022-11-01T04:30:27.303Z,66.89
2022-11-01T04:32:31.877Z,66.77
2022-11-01T04:34:43.504Z,66.74
2022-11-01T04:36:45.450Z,67.14
2022-11-01T04:38:52.661Z,66.87
2022-11-01T04:40:56.831Z,67.08
2022-11-01T04:42:59.558Z,66.74
2022-11-01T04:45:02.688Z,67.18
2022-11-01T04:47:04.851Z,67.38
2022-11-01T04:49:06.847Z,67.23
2022-11-01T04:51:35.121Z,67.25
2022-11-01T04:53:37.777Z,67.20
2022-11-01T04:55:40.103Z,67.04
2022-11-01T04:57:43.289Z,67.20
2022-11-01T04:59:45.664Z,67.28
2022-11-01T05:01:47.727Z,67.15
2022-11-01T05:03:50.130Z,67.21
2022-11-01T05:05:52.253Z,67.28
2022-11-01T05:08:08.611Z,67.63
2022-11-01T05:10:10.994Z,67.30
2022-11-01T05:16:19.052Z,67.80
2022-11-01T05:18:21.950Z,67.57
2022-11-01T05:20:24.501Z,67.83
2022-11-01T05:22:26.654Z,67.45
2022-11-01T05:24:28.738Z,67.82
2022-11-01T05:26:33.861Z,67.98
2022-11-01T05:28:35.848Z,67.65
2022-11-01T05:30:38.479Z,67.23
2022-11-01T05:32:40.686Z,67.45
2022-11-01T05:34:46.033Z,67.29
2022-11-01T05:36:51.159Z,66.87
2022-11-01T05:39:00.097Z,66.84
2022-11-01T05:41:03.861Z,66.62
2022-11-01T05:43:05.963Z,66.58
2022-11-01T05:45:10.175Z,66.87
2022-11-01T05:47:17.205Z,66.63
2022-11-01T05:49:20.171Z,66.29
2022-11-01T05:51:22.957Z,66.41
2022-11-01T05:53:25.021Z,66.17
2022-11-01T05:55:26.842Z,66.32
2022-11-01T05:57:33.117Z,65.98
2022-11-01T05:59:35.218Z,65.06
2022-11-01T06:01:37.105Z,65.68
2022-11-01T06:03:39.159Z,65.49
2022-11-01T06:06:19.449Z,64.71
2022-11-01T06:08:21.475Z,64.56
2022-11-01T06:10:23.608Z,64.74
2022-11-01T06:12:25.774Z,64.93
2022-11-01T06:14:27.615Z,64.67
2022-11-01T06:16:29.634Z,64.61
2022-11-01T06:18:31.826Z,63.79
2022-11-01T06:20:34.844Z,63.96
2022-11-01T06:22:36.965Z,63.70
2022-11-01T06:24:38.884Z,63.68
2022-11-01T06:26:40.647Z,63.90
2022-11-01T06:28:42.822Z,63.59
2022-11-01T06:30:44.608Z,63.51
2022-11-01T06:32:46.766Z,63.30
2022-11-01T06:34:48.618Z,63.07
2022-11-01T06:36:50.608Z,63.03
2022-11-01T06:38:52.713Z,63.50
2022-11-01T06:40:54.581Z,63.22
2022-11-01T06:43:05.660Z,63.01
2022-11-01T06:45:07.953Z,63.29
2022-11-01T06:47:12.709Z,63.40
2022-11-01T06:49:17.996Z,63.48
2022-11-01T06:51:21.271Z,63.29
2022-11-01T06:53:26.084Z,62.94
2022-11-01T06:55:29.488Z,62.83
2022-11-01T06:57:31.394Z,62.56
2022-11-01T06:59:33.323Z,62.15
2022-11-01T07:01:35.225Z,62.44
2022-11-01T07:03:37.197Z,62.46
2022-11-01T07:05:40.446Z,62.45
2022-11-01T07:07:42.538Z,62.49
2022-11-01T07:09:47.685Z,62.49
2022-11-01T07:11:49.406Z,62.33
2022-11-01T07:13:51.281Z,61.93
2022-11-01T07:15:53.132Z,61.76
2022-11-01T07:17:58.832Z,61.65
2022-11-01T07:20:00.765Z,61.65
2022-11-01T07:22:02.958Z,61.48
2022-11-01T07:24:05.442Z,61.62
2022-11-01T07:26:07.302Z,61.26
2022-11-01T07:28:09.736Z,61.65
2022-11-01T07:30:12.263Z,61.24
2022-11-01T07:32:14.135Z,61.00
2022-11-01T07:34:16.079Z,61.12
2022-11-01T07:36:18.283Z,60.78
2022-11-01T07:38:20.389Z,60.43
2022-11-01T07:40:27.654Z,60.76
2022-11-01T07:42:29.917Z,60.48
2022-11-01T07:44:31.822Z,60.17
2022-11-01T07:46:33.691Z,60.27
2022-11-01T07:48:37.061Z,60.39
2022-11-01T07:50:40.746Z,60.41
2022-11-01T07:52:43.153Z,59.81
2022-11-01T07:54:45.022Z,60.16
2022-11-01T07:56:48.024Z,60.22
2022-11-01T07:58:49.888Z,60.10
2022-11-01T08:00:51.726Z,60.02
2022-11-01T08:03:01.217Z,59.54
2022-11-01T08:05:03.597Z,60.35
2022-11-01T08:07:05.460Z,60.36
2022-11-01T08:09:07.408Z,60.13
2022-11-01T08:11:09.289Z,60.16
2022-11-01T08:13:25.026Z,59.48
2022-11-01T08:15:26.850Z,60.07
2022-11-01T08:17:33.490Z,59.28
2022-11-01T08:19:35.202Z,59.32
2022-11-01T08:21:37.172Z,59.07
2022-11-01T08:23:39.154Z,58.62
2022-11-01T08:25:41.187Z,58.66
2022-11-01T08:27:45.436Z,58.85
2022-11-01T08:29:47.457Z,58.40
2022-11-01T08:31:49.509Z,58.71
2022-11-01T08:33:51.538Z,58.45
2022-11-01T08:35:53.968Z,58.64
2022-11-01T08:37:56.384Z,58.84
2022-11-01T08:39:58.351Z,58.54
2022-11-01T08:42:00.845Z,58.82
2022-11-01T08:44:02.917Z,58.59
2022-11-01T08:46:05.019Z,58.63
2022-11-01T08:48:07.402Z,57.83
2022-11-01T08:50:11.942Z,57.78
2022-11-01T08:52:14.108Z,57.45
2022-11-01T08:54:16.128Z,56.99
2022-11-01T08:56:20.745Z,57.27
2022-11-01T08:58:22.862Z,57.26
2022-11-01T09:00:24.823Z,57.83
2022-11-01T09:02:27.192Z,57.11
2022-11-01T09:04:29.821Z,57.96
2022-11-01T09:06:36.197Z,57.83
2022-11-01T09:08:38.803Z,57.62
2022-11-01T09:10:40.747Z,57.38
2022-11-01T09:12:43.686Z,57.38
2022-11-01T09:14:45.818Z,58.12
2022-11-01T09:16:47.903Z,57.73
2022-11-01T09:18:50.203Z,57.44
2022-11-01T09:20:55.975Z,56.83
2022-11-01T09:22:57.902Z,57.22
2022-11-01T09:25:00.093Z,58.21
2022-11-01T09:27:02.586Z,58.22
2022-11-01T09:29:04.958Z,58.13
2022-11-01T09:31:22.490Z,58.52
2022-11-01T09:33:25.253Z,58.54
2022-11-01T09:35:27.421Z,58.51
2022-11-01T09:37:29.367Z,58.73
2022-11-01T09:39:31.321Z,58.45
2022-11-01T09:41:39.203Z,58.36
2022-11-01T09:43:44.445Z,58.59
2022-11-01T09:45:48.773Z,58.24
2022-11-01T09:47:54.838Z,58.51
2022-11-01T09:50:38.677Z,57.50
2022-11-01T09:52:41.323Z,58.31
2022-11-01T09:54:43.722Z,58.21
2022-11-01T09:57:07.520Z,57.78
2022-11-01T09:59:38.838Z,57.86
2022-11-01T10:01:55.798Z,56.95
2022-11-01T10:04:04.122Z,57.59
2022-11-01T10:06:44.305Z,56.77
2022-11-01T10:08:46.452Z,57.55
2022-11-01T10:11:04.279Z,56.97
2022-11-01T10:13:24.528Z,56.80
2022-11-01T10:15:41.961Z,57.04
2022-11-01T10:17:52.458Z,55.93
2022-11-01T10:22:32.566Z,55.77
2022-11-01T10:24:49.308Z,55.88
2022-11-01T10:26:56.182Z,55.98
2022-11-01T10:29:16.673Z,55.32
2022-11-01T10:31:23.177Z,56.46
2022-11-01T10:33:30.760Z,55.57
2022-11-01T10:35:38.487Z,55.72
2022-11-01T10:37:57.460Z,56.05
2022-11-01T10:40:18.800Z,55.56
2022-11-01T10:42:20.863Z,56.30
2022-11-01T10:44:38.574Z,55.32
2022-11-01T10:46:45.671Z,56.06
2022-11-01T10:49:01.628Z,55.39
2022-11-01T10:51:06.554Z,56.01
2022-11-01T10:53:12.847Z,55.82
2022-11-01T10:58:57.172Z,55.25
2022-11-01T11:01:06.257Z,56.30
2022-11-01T11:03:15.700Z,57.05
2022-11-01T11:05:19.199Z,56.20
2022-11-01T11:07:24.215Z,56.25
2022-11-01T11:09:34.748Z,55.61
2022-11-01T11:11:44.497Z,55.62
2022-11-01T11:13:53.967Z,56.10
2022-11-01T11:16:02.519Z,55.76
2022-11-01T11:18:17.544Z,56.06
2022-11-01T11:20:30.563Z,54.89
2022-11-01T11:22:37.625Z,55.88
2022-11-01T11:24:44.471Z,56.07
2022-11-01T11:26:53.194Z,55.65
2022-11-01T11:28:57.484Z,55.44
2022-11-01T11:31:18.763Z,54.80
2022-11-01T11:33:22.137Z,55.49
2022-11-01T11:35:27.767Z,55.68
2022-11-01T11:37:33.581Z,54.66
2022-11-01T11:39:37.925Z,55.35
2022-11-01T11:41:42.986Z,55.12
2022-11-01T11:43:45.457Z,54.89
2022-11-01T11:46:03.358Z,54.65
2022-11-01T11:48:20.634Z,54.21
2022-11-01T11:50:32.478Z,54.75
2022-11-01T11:52:38.519Z,54.38
2022-11-01T11:54:42.257Z,54.67
2022-11-01T11:56:46.125Z,54.59
2022-11-01T11:58:48.831Z,54.32
2022-11-01T12:00:55.128Z,54.44
2022-11-01T12:03:00.627Z,54.46
2022-11-01T12:05:09.047Z,53.93
2022-11-01T12:07:28.249Z,53.17
2022-11-01T12:09:48.277Z,53.49
2022-11-01T12:11:50.656Z,53.61
2022-11-01T12:14:06.456Z,52.07
2022-11-01T12:16:17.827Z,52.80
2022-11-01T12:18:20.110Z,53.06
2022-11-01T12:20:26.960Z,53.22
2022-11-01T12:22:33.204Z,52.71
2022-11-01T12:24:48.483Z,52.28
2022-11-01T12:26:54.185Z,52.83
2022-11-01T12:29:03.369Z,52.70
2022-11-01T12:31:19.620Z,51.26
2022-11-01T12:33:28.206Z,51.88
2022-11-01T12:35:35.236Z,52.37
2022-11-01T12:37:52.021Z,50.97
2022-11-01T12:40:26.525Z,51.08
2022-11-01T12:42:32.978Z,51.63
2022-11-01T12:44:48.561Z,50.98
2022-11-01T12:47:00.382Z,50.76
2022-11-01T12:49:34.662Z,50.98
2022-11-01T12:51:42.606Z,51.63
2022-11-01T12:54:02.251Z,50.20
2022-11-01T12:56:04.518Z,51.08
2022-11-01T12:58:13.356Z,50.31
2022-11-01T13:00:20.362Z,50.72
2022-11-01T13:02:48.169Z,50.24
2022-11-01T13:05:00.384Z,50.94
2022-11-01T13:07:21.541Z,50.51
2022-11-01T13:09:38.553Z,50.41
2022-11-01T13:12:05.308Z,50.17
2022-11-01T13:14:19.275Z,50.18
2022-11-01T13:16:34.604Z,49.82
2022-11-01T13:18:58.386Z,49.54
2022-11-01T13:21:03.358Z,50.49
2022-11-01T13:23:24.297Z,50.46
2022-11-01T13:25:36.364Z,49.56
2022-11-01T13:27:48.910Z,49.55
2022-11-01T13:30:03.545Z,48.63
2022-11-01T13:32:18.405Z,49.74
2022-11-01T13:34:48.089Z,48.75
2022-11-01T13:37:19.071Z,50.01
2022-11-01T13:39:38.216Z,49.42
2022-11-01T13:41:48.926Z,49.59
2022-11-01T13:43:58.239Z,49.51
2022-11-01T13:46:24.358Z,49.38
2022-11-01T13:48:54.261Z,49.75
2022-11-01T13:51:16.308Z,49.79
2022-11-01T13:53:46.079Z,50.17
2022-11-01T13:55:58.139Z,50.32
2022-11-01T13:58:01.065Z,50.12
2022-11-01T14:00:09.768Z,50.14
2022-11-01T14:02:55.347Z,50.02
2022-11-01T14:05:03.180Z,50.32
2022-11-01T14:07:15.208Z,50.25
2022-11-01T14:09:26.787Z,50.79
2022-11-01T14:12:07.835Z,50.50
2022-11-01T14:14:31.797Z,50.58
2022-11-01T14:16:33.838Z,50.65
2022-11-01T14:19:16.053Z,50.72
2022-11-01T14:21:27.566Z,51.04
2022-11-01T14:23:29.893Z,51.01
2022-11-01T14:25:32.958Z,51.13
2022-11-01T14:27:36.974Z,51.60
2022-11-01T14:29:39.240Z,51.40
2022-11-01T14:31:45.923Z,51.27
2022-11-01T14:33:48.670Z,51.57
2022-11-01T14:35:57.257Z,51.45
2022-11-01T14:38:14.763Z,51.43
2022-11-01T14:40:26.079Z,51.58
2022-11-01T14:42:41.849Z,51.53
2022-11-01T14:44:50.529Z,51.86
2022-11-01T14:46:56.578Z,52.06
2022-11-01T14:49:28.004Z,52.18
2022-11-01T14:51:32.181Z,52.33
2022-11-01T14:53:38.261Z,52.24
2022-11-01T14:55:40.345Z,52.83
2022-11-01T14:57:43.241Z,52.69
2022-11-01T14:59:45.206Z,52.44
2022-11-01T15:01:50.404Z,53.21
2022-11-01T15:04:01.157Z,53.60
2022-11-01T15:06:04.943Z,52.82
2022-11-01T15:08:31.047Z,53.13
2022-11-01T15:10:41.757Z,52.54
2022-11-01T15:12:54.128Z,53.22
2022-11-01T15:14:58.413Z,53.27
2022-11-01T15:17:00.957Z,53.37
2022-11-01T15:19:15.180Z,52.77
2022-11-01T15:22:07.087Z,53.59
2022-11-01T15:24:20.468Z,53.50
2022-11-01T15:26:27.224Z,53.30
2022-11-01T15:28:51.552Z,52.73
2022-11-01T15:31:00.043Z,52.65
2022-11-01T15:33:30.997Z,52.91
2022-11-01T15:35:33.556Z,53.34
2022-11-01T15:37:37.053Z,53.55
2022-11-01T15:39:39.389Z,53.18
2022-11-01T15:41:42.044Z,53.01
2022-11-01T15:43:51.482Z,53.52
2022-11-01T15:46:01.729Z,52.92
2022-11-01T15:48:10.135Z,52.97
2022-11-01T15:50:13.127Z,52.95
2022-11-01T15:52:19.651Z,52.83
2022-11-01T15:54:31.856Z,53.42
2022-11-01T15:56:54.547Z,53.53
2022-11-01T15:59:00.557Z,53.22
2022-11-01T16:01:20.607Z,53.42
2022-11-01T16:03:29.322Z,53.50
2022-11-01T16:06:01.354Z,53.53
2022-11-01T16:08:07.515Z,53.49
2022-11-01T16:10:30.063Z,53.25
2022-11-01T16:12:36.581Z,53.68
2022-11-01T16:14:38.558Z,53.41
2022-11-01T16:17:06.642Z,53.23
2022-11-01T16:19:27.787Z,53.86
2022-11-01T16:21:30.854Z,53.26
2022-11-01T16:23:32.955Z,53.22
2022-11-01T16:25:39.583Z,53.34
2022-11-01T16:28:02.382Z,53.72
2022-11-01T16:30:10.372Z,53.88
2022-11-01T16:32:27.346Z,54.82
2022-11-01T16:34:29.318Z,54.76
2022-11-01T16:36:31.284Z,55.04
2022-11-01T16:38:33.388Z,54.74
2022-11-01T16:40:35.542Z,55.07
2022-11-01T16:42:37.720Z,54.63
2022-11-01T16:44:40.594Z,55.09
2022-11-01T16:46:42.727Z,55.18
2022-11-01T16:48:56.419Z,54.56
2022-11-01T16:51:00.338Z,55.31
2022-11-01T16:53:02.510Z,55.74
2022-11-01T16:55:04.894Z,55.66
2022-11-01T16:57:18.552Z,56.34
2022-11-01T16:59:27.681Z,55.79
2022-11-01T17:01:35.059Z,55.06
2022-11-01T17:03:38.053Z,55.29
2022-11-01T17:09:16.553Z,54.91
2022-11-01T17:11:18.790Z,54.70
2022-11-01T17:13:20.708Z,54.69
2022-11-01T17:15:23.193Z,54.39
2022-11-01T17:17:27.591Z,54.69
2022-11-01T17:19:33.226Z,54.50
2022-11-01T17:21:39.562Z,54.72
2022-11-01T17:23:41.756Z,54.67
2022-11-01T17:25:47.519Z,55.41
2022-11-01T17:27:51.887Z,55.43
2022-11-01T17:29:53.997Z,55.47
2022-11-01T17:31:56.134Z,55.79
2022-11-01T17:34:00.825Z,56.38
2022-11-01T17:36:03.145Z,55.72
2022-11-01T17:38:09.585Z,55.52
2022-11-01T17:40:25.365Z,55.56
2022-11-01T17:42:27.774Z,55.45
2022-11-01T17:44:32.593Z,55.66
2022-11-01T17:46:34.705Z,55.31
2022-11-01T17:48:39.399Z,55.16
2022-11-01T17:50:42.445Z,55.12
2022-11-01T17:52:44.584Z,55.57
2022-11-01T17:54:46.896Z,55.13
2022-11-01T17:56:51.437Z,55.59
2022-11-01T17:58:53.977Z,55.51
2022-11-01T18:00:56.100Z,55.23
2022-11-01T18:02:58.868Z,55.29
2022-11-01T18:05:00.786Z,55.20
2022-11-01T18:07:06.528Z,55.41
2022-11-01T18:09:23.645Z,55.62
2022-11-01T18:11:40.009Z,55.84
2022-11-01T18:14:11.404Z,56.65
2022-11-01T18:16:29.657Z,56.84
2022-11-01T18:18:32.021Z,56.53
2022-11-01T18:20:50.092Z,56.07
2022-11-01T18:23:00.782Z,56.83
2022-11-01T18:25:25.423Z,56.10
2022-11-01T18:27:35.882Z,56.53
2022-11-01T18:29:41.564Z,56.15
2022-11-01T18:31:48.885Z,56.17
2022-11-01T18:34:20.703Z,56.47
2022-11-01T18:36:33.591Z,56.11
2022-11-01T18:38:56.382Z,55.78
2022-11-01T18:41:00.657Z,55.73
2022-11-01T18:43:05.177Z,56.01
2022-11-01T18:45:26.851Z,55.63
2022-11-01T18:47:35.011Z,55.76
2022-11-01T18:49:39.580Z,55.83
2022-11-01T18:51:41.600Z,55.75
2022-11-01T18:53:43.842Z,55.52
2022-11-01T18:56:14.182Z,55.37
2022-11-01T18:58:31.272Z,55.54
2022-11-01T19:00:33.621Z,55.45
2022-11-01T19:02:36.195Z,55.50
2022-11-01T19:04:41.250Z,55.23
2022-11-01T19:06:44.760Z,55.19
2022-11-01T19:08:58.636Z,55.16
2022-11-01T19:11:01.615Z,55.20
2022-11-01T19:13:12.899Z,55.67
2022-11-01T19:15:28.415Z,55.02
2022-11-01T19:17:37.529Z,55.10
2022-11-01T19:19:42.311Z,55.12
2022-11-01T19:21:44.324Z,55.44
2022-11-01T19:24:28.163Z,55.59
2022-11-01T19:26:39.262Z,55.45
2022-11-01T19:28:41.252Z,55.35
2022-11-01T19:30:49.207Z,55.48
2022-11-01T19:32:54.187Z,55.30
2022-11-01T19:34:56.284Z,55.23
2022-11-01T19:37:00.497Z,55.61
2022-11-01T19:39:28.034Z,55.52
2022-11-01T19:41:33.693Z,55.55
2022-11-01T19:43:35.858Z,55.47
2022-11-01T19:45:49.663Z,55.50
2022-11-01T19:47:51.668Z,55.52
2022-11-01T19:49:53.760Z,55.73
2022-11-01T19:52:09.855Z,55.21
2022-11-01T19:54:12.666Z,55.31
2022-11-01T19:56:21.629Z,55.41
2022-11-01T19:58:30.153Z,55.12
2022-11-01T20:00:36.381Z,55.43
2022-11-01T20:02:39.134Z,55.39
2022-11-01T20:04:41.870Z,55.26
2022-11-01T20:06:50.729Z,55.63
2022-11-01T20:08:55.726Z,55.73
2022-11-01T20:10:57.665Z,55.30
2022-11-01T20:12:59.675Z,55.44
2022-11-01T20:15:05.264Z,55.48
2022-11-01T20:17:07.386Z,55.65
2022-11-01T20:19:13.171Z,55.94
2022-11-01T20:21:18.925Z,55.77
2022-11-01T20:23:26.200Z,55.56
2022-11-01T20:25:31.023Z,55.71
2022-11-01T20:27:33.328Z,55.44
2022-11-01T20:29:35.515Z,55.52
2022-11-01T20:31:39.959Z,55.82
2022-11-01T20:33:42.405Z,55.86
2022-11-01T20:35:44.691Z,56.16
2022-11-01T20:38:24.385Z,56.77
2022-11-01T20:40:26.810Z,56.20
2022-11-01T20:42:29.286Z,56.04
2022-11-01T20:44:34.626Z,56.62
2022-11-01T20:47:43.899Z,57.44
2022-11-01T20:49:48.739Z,56.96
2022-11-01T20:51:50.828Z,57.45
2022-11-01T20:53:55.820Z,57.58
2022-11-01T20:55:57.804Z,57.44
2022-11-01T20:58:00.132Z,57.61
2022-11-01T21:00:04.354Z,57.77
2022-11-01T21:02:10.655Z,58.57
2022-11-01T21:04:13.066Z,58.09
2022-11-01T21:06:19.236Z,58.59
2022-11-01T21:08:22.813Z,57.88
2022-11-01T21:10:34.143Z,58.47
2022-11-01T21:12:36.196Z,57.69
2022-11-01T21:14:41.188Z,58.29
2022-11-01T21:16:43.593Z,58.22
2022-11-01T21:18:46.175Z,57.83
2022-11-01T21:20:49.461Z,58.12
2022-11-01T21:22:59.196Z,57.98
2022-11-01T21:25:01.184Z,58.27
2022-11-01T21:27:06.196Z,58.15
2022-11-01T21:29:34.249Z,58.34
2022-11-01T21:31:39.648Z,57.92
2022-11-01T21:33:52.533Z,58.17
2022-11-01T21:35:57.183Z,57.79
2022-11-01T21:37:59.905Z,57.67
2022-11-01T21:40:06.619Z,57.44
2022-11-01T21:42:33.335Z,58.08
2022-11-01T21:44:43.221Z,59.05
2022-11-01T21:46:54.170Z,58.93
2022-11-01T21:48:59.742Z,59.15
2022-11-01T21:54:34.020Z,59.25
2022-11-01T21:56:38.876Z,58.81
2022-11-01T21:58:40.935Z,58.77
2022-11-01T22:00:43.092Z,58.47
2022-11-01T22:02:51.134Z,58.42
2022-11-01T22:04:55.499Z,58.34
2022-11-01T22:07:01.812Z,58.25
2022-11-01T22:09:04.570Z,58.28
2022-11-01T22:11:06.491Z,58.29
2022-11-01T22:13:08.852Z,57.94
2022-11-01T22:15:11.378Z,58.29
2022-11-01T22:17:13.427Z,58.29
2022-11-01T22:19:15.453Z,57.87
2022-11-01T22:21:17.759Z,58.16
2022-11-01T22:23:20.165Z,58.01
2022-11-01T22:25:22.273Z,57.79
2022-11-01T22:27:24.314Z,58.10
2022-11-01T22:29:26.377Z,57.93
2022-11-01T22:31:30.002Z,58.49
2022-11-01T22:33:34.207Z,58.21
2022-11-01T22:35:36.219Z,58.69
2022-11-01T22:37:38.261Z,58.58
2022-11-01T22:39:41.331Z,59.02
2022-11-01T22:41:43.956Z,58.91
2022-11-01T22:43:47.805Z,59.10
2022-11-01T22:45:53.114Z,59.60
2022-11-01T22:47:58.164Z,60.49
2022-11-01T22:50:03.278Z,60.62
2022-11-01T22:52:29.646Z,62.13
2022-11-01T22:54:39.009Z,62.10
2022-11-01T22:56:40.944Z,61.36
2022-11-01T22:58:42.898Z,61.59
2022-11-01T23:04:38.016Z,61.91
2022-11-01T23:06:42.847Z,62.14
2022-11-01T23:08:44.784Z,62.16
2022-11-01T23:10:50.241Z,61.94
2022-11-01T23:13:27.266Z,62.90
2022-11-01T23:15:33.230Z,62.15
2022-11-01T23:17:38.735Z,62.11
2022-11-01T23:19:40.942Z,62.25
2022-11-01T23:21:45.936Z,61.94
2022-11-01T23:23:48.818Z,61.71
2022-11-01T23:25:51.808Z,61.93
2022-11-01T23:27:54.583Z,62.13
2022-11-01T23:30:01.217Z,62.39
2022-11-01T23:32:03.645Z,63.39
2022-11-01T23:34:07.014Z,63.53
2022-11-01T23:36:27.696Z,63.61
2022-11-01T23:38:41.164Z,63.50
2022-11-01T23:40:43.239Z,62.78
2022-11-01T23:42:46.270Z,62.81
2022-11-01T23:44:52.410Z,63.60
2022-11-01T23:47:00.986Z,63.93
2022-11-01T23:49:13.326Z,63.38
2022-11-01T23:51:21.481Z,63.26
2022-11-01T23:53:32.263Z,63.28
2022-11-01T23:55:38.742Z,63.37
2022-11-01T23:57:44.136Z,62.79
2022-11-01T23:59:54.184Z,63.18
